Startpagina
METAR-TAF:

METAR-TAF

Vliegvelden :

Banská Bystrica, Slowakije

breedte: 48-38-17N, lengte: 019-08-03E, hoogte: 318 m

METAR: ontbreekt

Tijdstip: 21:54 (19:54 UTC)

Verwachting

Dit bericht is 3 uur en het 24 minuten geleden gemaakt, om 16:30 UTC
Verwachting geldig van 21 om 18 UTC tot 22 om 06 UTC
Wind 8 kt uit het zuidzuidwesten
Zicht 10 km of meer
Weinig wolken op 5000 ft
Tijdelijke
van 21 om 18 UTC tot 21 om 23 UTC
Wind 20 kt uit variabele richting
Zicht: 2000 m
Verspreide wolken op 1500 ft, Cumulonimbus.
Gebroken wolken op 2500 ft
onweer, regen

TAF: LZSL 211630Z 2118/2206 21008KT 9999 FEW050 TEMPO 2118/2123 VRB20KT 2000 TSRA SCT015CB BKN025

Waarnemingen en weersverwachtingen van meer dan 4000 vliegvelden (METAR en TAF).

De beschikbare stations zijn de gele en rode punten op de kaart.

Ga met uw muis naar het station om de naam te zien.

Klik dan om waarnemingen en weersverwachtingen te zien.

kaart wijzigen: klik op de groene knoppen met een zwart kruis om in te zoomen, op de groene knop met een streepje om uit te zoomen of op de groene pijlen voor aangrenzende kaarten.


METAR-TAF: